Terminal Aerodrome Forecast
Issued by NWS

Home | Current Version | Previous Version | Text Only | Print | Product List | Glossary On
Versions: 1 2 3 4 5 6 7 8 9 10 11 12 13 14 15 16 17 18 19 20 21 22
000
FTUS42 KRAH 251348 AAA
TAFRWI
TAF AMD
KRWI 251348Z 2514/2612 19010G17KT P6SM FEW015 SCT050
      TEMPO 2514/2515 16007KT 4SM BR SCT015
     FM251800 22015G26KT P6SM VCSH SCT030 BKN050
      TEMPO 2520/2522 4SM -TSRA BKN030CB
     FM252300 29012G18KT P6SM SCT060
     FM260400 32009KT P6SM SKC=

USA.gov is the U.S. government's official web portal to all federal, state and local government web resources and services.